createdAt,value
2018-07-11T00:00:57.954Z,6.27
2018-07-11T00:03:52.524Z,7.37
2018-07-11T00:06:22.889Z,5.77
2018-07-11T00:08:52.261Z,5.70
2018-07-11T00:11:21.454Z,7.07
2018-07-11T00:13:50.810Z,5.07
2018-07-11T00:16:20.084Z,6.87
2018-07-11T00:18:49.341Z,5.33
2018-07-11T00:21:18.627Z,6.53
2018-07-11T00:23:47.909Z,5.83
2018-07-11T00:26:17.196Z,5.97
2018-07-11T00:28:46.509Z,7.60
2018-07-11T00:31:15.837Z,5.87
2018-07-11T00:33:45.088Z,6.77
2018-07-11T00:36:14.407Z,7.07
2018-07-11T00:38:44.254Z,7.07
2018-07-11T00:41:13.636Z,6.23
2018-07-11T00:43:43.070Z,6.17
2018-07-11T00:46:12.618Z,6.63
2018-07-11T00:48:41.941Z,6.77
2018-07-11T00:51:11.301Z,7.10
2018-07-11T00:53:40.661Z,6.90
2018-07-11T00:56:10.040Z,7.90
2018-07-11T00:58:43.288Z,7.10
2018-07-11T01:01:15.498Z,6.43
2018-07-11T01:03:52.500Z,7.30
2018-07-11T01:06:21.648Z,6.73
2018-07-11T01:08:55.005Z,9.23
2018-07-11T01:11:24.250Z,7.97
2018-07-11T01:13:53.329Z,6.93
2018-07-11T01:16:24.042Z,7.10
2018-07-11T01:19:01.900Z,8.20
2018-07-11T01:21:31.787Z,6.93
2018-07-11T01:24:00.904Z,8.23
2018-07-11T01:26:31.048Z,7.07
2018-07-11T01:29:00.279Z,8.37
2018-07-11T01:31:29.345Z,8.50
2018-07-11T01:33:58.736Z,7.57
2018-07-11T01:36:28.032Z,7.83
2018-07-11T01:38:57.556Z,8.87
2018-07-11T01:41:26.711Z,8.87
2018-07-11T01:43:55.768Z,10.77
2018-07-11T01:46:28.222Z,8.60
2018-07-11T01:48:57.387Z,7.43
2018-07-11T01:53:42.509Z,6.73
2018-07-11T01:56:11.901Z,7.40
2018-07-11T01:58:43.598Z,7.17
2018-07-11T02:01:12.880Z,11.63
2018-07-11T02:03:42.007Z,8.97
2018-07-11T02:06:11.369Z,9.00
2018-07-11T02:08:40.701Z,9.40
2018-07-11T02:11:09.808Z,8.40
2018-07-11T02:13:39.147Z,9.57
2018-07-11T02:16:11.125Z,10.40
2018-07-11T02:18:40.290Z,8.43
2018-07-11T02:21:09.402Z,8.97
2018-07-11T02:23:39.040Z,9.13
2018-07-11T02:26:08.594Z,8.70
2018-07-11T02:28:37.961Z,8.90
2018-07-11T02:31:07.052Z,8.43
2018-07-11T02:33:36.088Z,8.80
2018-07-11T02:36:05.214Z,7.90
2018-07-11T02:38:34.324Z,8.37
2018-07-11T02:41:03.261Z,8.17
2018-07-11T02:43:32.284Z,8.53
2018-07-11T02:46:01.439Z,11.63
2018-07-11T02:48:30.749Z,12.60
2018-07-11T02:51:00.091Z,8.93
2018-07-11T02:53:29.149Z,7.60
2018-07-11T02:55:58.512Z,7.40
2018-07-11T02:58:27.561Z,10.20
2018-07-11T03:01:00.931Z,9.50
2018-07-11T03:03:30.074Z,10.43
2018-07-11T03:05:59.089Z,11.30
2018-07-11T03:08:42.857Z,10.23
2018-07-11T03:11:11.865Z,9.63
2018-07-11T03:13:40.925Z,11.30
2018-07-11T03:16:10.013Z,12.80
2018-07-11T03:18:39.275Z,9.77
2018-07-11T03:21:08.265Z,9.90
2018-07-11T03:23:37.416Z,13.00
2018-07-11T03:26:06.502Z,11.30
2018-07-11T03:28:35.749Z,12.77
2018-07-11T03:31:04.773Z,13.00
2018-07-11T03:33:33.851Z,14.13
2018-07-11T03:36:02.828Z,13.20
2018-07-11T03:38:34.824Z,13.57
2018-07-11T03:41:04.094Z,13.20
2018-07-11T03:43:33.294Z,13.53
2018-07-11T03:46:02.410Z,11.60
2018-07-11T03:48:31.493Z,12.23
2018-07-11T03:51:00.473Z,11.20
2018-07-11T03:53:29.533Z,10.43
2018-07-11T03:55:58.473Z,10.50
2018-07-11T03:58:27.575Z,9.17
2018-07-11T04:00:56.692Z,12.00
2018-07-11T04:03:25.671Z,12.23
2018-07-11T04:05:54.630Z,10.00
2018-07-11T04:08:23.840Z,12.37
2018-07-11T04:10:56.468Z,10.00
2018-07-11T04:13:25.669Z,10.80
2018-07-11T04:15:54.791Z,10.73
2018-07-11T04:18:30.687Z,10.33
2018-07-11T04:21:01.453Z,9.93
2018-07-11T04:23:30.638Z,11.27
2018-07-11T04:26:00.211Z,11.33
2018-07-11T04:28:30.017Z,10.30
2018-07-11T04:30:59.307Z,10.00
2018-07-11T04:33:28.563Z,11.03
2018-07-11T04:35:57.778Z,9.67
2018-07-11T04:38:27.134Z,13.27
2018-07-11T04:40:56.437Z,12.03
2018-07-11T04:43:28.056Z,11.63
2018-07-11T04:45:57.375Z,10.67
2018-07-11T04:48:26.675Z,9.37
2018-07-11T04:50:56.034Z,9.43
2018-07-11T04:53:27.602Z,11.80
2018-07-11T04:55:59.728Z,11.80
2018-07-11T04:58:29.637Z,13.63
2018-07-11T05:00:58.988Z,13.70
2018-07-11T05:03:34.267Z,16.90
2018-07-11T05:06:03.530Z,15.17
2018-07-11T05:08:32.728Z,13.37
2018-07-11T05:11:01.940Z,13.27
2018-07-11T05:13:31.207Z,13.83
2018-07-11T05:16:00.352Z,14.20
2018-07-11T05:18:29.520Z,14.33
2018-07-11T05:20:58.641Z,13.90
2018-07-11T05:23:27.872Z,14.53
2018-07-11T05:25:56.991Z,11.60
2018-07-11T05:28:26.150Z,13.53
2018-07-11T05:30:55.392Z,15.43
2018-07-11T05:33:24.727Z,15.50
2018-07-11T05:35:53.959Z,15.53
2018-07-11T05:38:23.099Z,17.03
2018-07-11T05:40:52.243Z,17.40
2018-07-11T05:43:21.507Z,16.73
2018-07-11T05:45:50.632Z,18.07
2018-07-11T05:48:20.797Z,19.00
2018-07-11T05:50:49.936Z,22.37
2018-07-11T05:53:19.039Z,19.13
2018-07-11T05:55:48.310Z,18.97
2018-07-11T05:58:17.498Z,18.40
2018-07-11T06:00:46.834Z,16.63
2018-07-11T06:03:16.168Z,20.13
2018-07-11T06:05:45.359Z,19.03
2018-07-11T06:08:14.529Z,20.30
2018-07-11T06:10:43.786Z,19.77
2018-07-11T06:13:12.979Z,20.03
2018-07-11T06:15:42.445Z,18.90
2018-07-11T06:18:11.920Z,17.20
2018-07-11T06:20:41.234Z,17.83
2018-07-11T06:23:10.453Z,22.23
2018-07-11T06:25:42.780Z,17.23
2018-07-11T06:28:11.932Z,17.80
2018-07-11T06:30:41.156Z,17.57
2018-07-11T06:33:10.513Z,21.63
2018-07-11T06:35:39.830Z,20.67
2018-07-11T06:38:09.223Z,18.10
2018-07-11T06:40:38.639Z,20.77
2018-07-11T06:43:08.072Z,19.53
2018-07-11T06:45:37.491Z,20.13
2018-07-11T06:48:06.855Z,18.57
2018-07-11T06:50:36.326Z,21.03
2018-07-11T06:53:05.710Z,20.50
2018-07-11T06:55:35.175Z,20.70
2018-07-11T06:58:06.591Z,18.47
2018-07-11T07:00:36.390Z,19.73
2018-07-11T07:03:05.936Z,21.77
2018-07-11T07:05:35.391Z,21.73
2018-07-11T07:08:04.851Z,20.03
2018-07-11T07:10:34.670Z,20.90
2018-07-11T07:13:04.231Z,20.63
2018-07-11T07:15:33.653Z,20.57
2018-07-11T07:18:03.235Z,19.37
2018-07-11T07:20:32.605Z,24.90
2018-07-11T07:23:02.222Z,19.60
2018-07-11T07:25:31.593Z,21.00
2018-07-11T07:28:00.879Z,22.60
2018-07-11T07:30:30.074Z,20.80
2018-07-11T07:32:59.343Z,22.53
2018-07-11T07:35:30.438Z,22.03
2018-07-11T07:37:59.629Z,21.17
2018-07-11T07:40:28.855Z,22.70
2018-07-11T07:42:58.149Z,23.77
2018-07-11T07:45:27.663Z,24.67
2018-07-11T07:47:56.892Z,23.40
2018-07-11T07:50:26.122Z,20.70
2018-07-11T07:52:57.639Z,20.60
2018-07-11T07:55:27.178Z,21.17
2018-07-11T07:57:56.656Z,21.23
2018-07-11T08:00:26.377Z,20.33
2018-07-11T08:02:59.109Z,18.90
2018-07-11T08:05:28.498Z,19.73
2018-07-11T08:07:57.673Z,23.67
2018-07-11T08:10:27.326Z,19.73
2018-07-11T08:12:57.065Z,19.30
2018-07-11T08:15:26.662Z,20.60
2018-07-11T08:17:56.090Z,18.70
2018-07-11T08:20:25.621Z,18.50
2018-07-11T08:23:15.770Z,19.30
2018-07-11T08:25:58.212Z,18.90
2018-07-11T08:29:35.038Z,21.07
2018-07-11T08:34:18.148Z,19.70
2018-07-11T08:37:03.929Z,19.63
2018-07-11T08:40:15.060Z,19.43
2018-07-11T08:43:01.162Z,21.80
2018-07-11T08:45:44.782Z,20.10
2018-07-11T08:52:29.733Z,18.57
2018-07-11T08:55:41.120Z,20.37
2018-07-11T08:58:21.080Z,19.00
2018-07-11T09:01:20.721Z,22.13
2018-07-11T09:04:38.554Z,24.57
2018-07-11T09:07:21.493Z,22.00
2018-07-11T09:10:05.577Z,22.50
2018-07-11T09:12:44.872Z,19.07
2018-07-11T09:17:29.605Z,17.87
2018-07-11T09:20:10.893Z,17.30
2018-07-11T09:22:53.711Z,16.43
2018-07-11T09:25:23.515Z,19.80
2018-07-11T09:27:53.025Z,19.80
2018-07-11T09:30:22.430Z,19.20
2018-07-11T09:32:54.410Z,22.47
2018-07-11T09:35:25.074Z,19.70
2018-07-11T09:37:55.491Z,21.67
2018-07-11T09:40:25.347Z,17.67
2018-07-11T09:42:56.082Z,19.90
2018-07-11T09:45:26.018Z,19.20
2018-07-11T09:47:57.000Z,19.13
2018-07-11T09:50:26.470Z,19.13
2018-07-11T09:52:56.446Z,17.57
2018-07-11T09:55:25.828Z,17.57
2018-07-11T09:58:05.726Z,20.93
2018-07-11T10:00:45.435Z,17.37
2018-07-11T10:03:17.205Z,15.20
2018-07-11T10:05:46.695Z,14.13
2018-07-11T10:08:16.404Z,14.97
2018-07-11T10:10:46.158Z,12.67
2018-07-11T10:13:15.781Z,14.10
2018-07-11T10:15:45.436Z,12.90
2018-07-11T10:18:14.735Z,13.33
2018-07-11T10:20:44.143Z,14.30
2018-07-11T10:23:13.448Z,14.27
2018-07-11T10:25:43.174Z,13.50
2018-07-11T10:28:19.543Z,13.67
2018-07-11T10:30:49.102Z,12.10
2018-07-11T10:33:18.262Z,10.43
2018-07-11T10:35:47.772Z,11.33
2018-07-11T10:38:17.154Z,12.13
2018-07-11T10:40:47.209Z,12.83
2018-07-11T10:43:17.320Z,14.10
2018-07-11T10:45:47.440Z,10.10
2018-07-11T10:48:16.608Z,7.30
2018-07-11T10:50:45.795Z,9.13
2018-07-11T10:53:14.962Z,8.63
2018-07-11T10:55:46.095Z,7.30
2018-07-11T10:58:22.028Z,7.47
2018-07-11T11:01:05.033Z,10.40
2018-07-11T11:03:27.856Z,9.30
2018-07-11T11:05:57.455Z,8.33
2018-07-11T11:08:27.538Z,9.87
2018-07-11T11:10:57.420Z,10.07
2018-07-11T11:13:27.515Z,8.57
2018-07-11T11:15:57.443Z,8.90
2018-07-11T11:18:27.169Z,7.93
2018-07-11T11:20:58.628Z,8.93
2018-07-11T11:23:29.232Z,9.97
2018-07-11T11:25:59.391Z,8.90
2018-07-11T11:28:29.451Z,8.17
2018-07-11T11:30:59.172Z,9.47
2018-07-11T11:33:28.862Z,8.07
2018-07-11T11:35:58.580Z,8.40
2018-07-11T11:38:28.327Z,8.00
2018-07-11T11:40:58.079Z,8.83
2018-07-11T11:43:27.726Z,10.43
2018-07-11T11:45:57.562Z,7.97
2018-07-11T11:48:27.064Z,9.43
2018-07-11T11:50:56.733Z,8.30
2018-07-11T11:53:26.567Z,7.63
2018-07-11T11:55:56.161Z,8.10
2018-07-11T11:58:26.094Z,13.10
2018-07-11T12:00:55.666Z,12.47
2018-07-11T12:03:25.450Z,8.40
2018-07-11T12:06:01.040Z,8.87
2018-07-11T12:08:30.597Z,9.53
2018-07-11T12:11:00.253Z,10.90
2018-07-11T12:13:29.887Z,10.60
2018-07-11T12:15:59.588Z,12.90
2018-07-11T12:18:29.250Z,11.27
2018-07-11T12:21:00.043Z,8.23
2018-07-11T12:23:30.086Z,8.80
2018-07-11T12:26:05.635Z,6.30
2018-07-11T12:28:35.608Z,6.83
2018-07-11T12:31:06.103Z,8.03
2018-07-11T12:33:36.006Z,8.03
2018-07-11T12:36:05.851Z,9.93
2018-07-11T12:38:35.598Z,11.97
2018-07-11T12:41:05.266Z,10.03
2018-07-11T12:43:34.917Z,6.30
2018-07-11T12:46:04.495Z,6.30
2018-07-11T12:48:41.430Z,8.40
2018-07-11T12:51:12.594Z,8.47
2018-07-11T12:53:42.455Z,5.20
2018-07-11T12:56:12.170Z,7.10
2018-07-11T12:58:41.928Z,6.03
2018-07-11T13:01:11.617Z,5.87
2018-07-11T13:03:41.664Z,7.37
2018-07-11T13:06:12.320Z,5.33
2018-07-11T13:08:42.273Z,5.07
2018-07-11T13:11:11.770Z,5.87
2018-07-11T13:13:41.573Z,9.10
2018-07-11T13:16:11.314Z,7.07
2018-07-11T13:18:40.798Z,5.87
2018-07-11T13:21:10.688Z,8.10
2018-07-11T13:23:45.288Z,6.77
2018-07-11T13:26:14.773Z,5.10
2018-07-11T13:28:44.417Z,9.78
2018-07-11T13:31:13.790Z,7.35
2018-07-11T13:33:43.818Z,6.75
2018-07-11T13:36:13.294Z,4.62
2018-07-11T13:38:42.786Z,5.97
2018-07-11T13:41:12.488Z,4.20
2018-07-11T13:43:41.991Z,5.13
2018-07-11T13:46:11.467Z,6.77
2018-07-11T13:48:42.523Z,8.60
2018-07-11T13:51:12.224Z,6.27
2018-07-11T13:53:41.889Z,5.50
2018-07-11T13:56:11.573Z,4.73
2018-07-11T13:58:43.956Z,3.53
2018-07-11T14:01:13.646Z,4.13
2018-07-11T14:03:43.124Z,5.53
2018-07-11T14:06:12.499Z,5.30
2018-07-11T14:08:41.943Z,6.33
2018-07-11T14:11:11.433Z,5.00
2018-07-11T14:13:41.241Z,4.10
2018-07-11T14:16:10.880Z,6.30
2018-07-11T14:18:40.402Z,4.83
2018-07-11T14:21:10.366Z,5.47
2018-07-11T14:23:42.172Z,7.90
2018-07-11T14:26:13.890Z,4.57
2018-07-11T14:28:47.906Z,8.40
2018-07-11T14:31:22.707Z,5.23
2018-07-11T14:33:52.443Z,7.33
2018-07-11T14:36:22.484Z,6.03
2018-07-11T14:38:51.898Z,6.83
2018-07-11T14:41:21.375Z,9.53
2018-07-11T14:43:50.872Z,9.90
2018-07-11T14:46:20.611Z,6.70
2018-07-11T14:48:50.163Z,7.50
2018-07-11T14:51:22.579Z,4.47
2018-07-11T14:53:53.058Z,7.87
2018-07-11T14:56:22.721Z,4.67
2018-07-11T14:58:58.925Z,9.07
2018-07-11T15:01:30.418Z,5.33
2018-07-11T15:03:59.785Z,6.50
2018-07-11T15:06:29.140Z,7.63
2018-07-11T15:09:02.270Z,6.37
2018-07-11T15:11:31.699Z,7.97
2018-07-11T15:14:01.258Z,6.17
2018-07-11T15:16:30.577Z,7.33
2018-07-11T15:19:01.370Z,5.37
2018-07-11T15:21:32.014Z,6.17
2018-07-11T15:24:01.481Z,9.43
2018-07-11T15:26:31.005Z,6.47
2018-07-11T15:29:00.489Z,6.23
2018-07-11T15:31:30.700Z,7.37
2018-07-11T15:34:01.942Z,9.50
2018-07-11T15:36:31.911Z,5.30
2018-07-11T15:39:01.335Z,7.23
2018-07-11T15:41:32.381Z,6.57
2018-07-11T15:44:01.719Z,7.30
2018-07-11T15:46:31.263Z,9.30
2018-07-11T15:49:00.598Z,8.33
2018-07-11T15:51:29.870Z,7.70
2018-07-11T15:53:59.393Z,7.03
2018-07-11T15:56:29.097Z,4.57
2018-07-11T15:59:05.297Z,8.73
2018-07-11T16:01:46.261Z,8.20
2018-07-11T16:04:23.295Z,6.77
2018-07-11T16:06:53.523Z,8.63
2018-07-11T16:09:22.791Z,10.00
2018-07-11T16:11:51.988Z,11.23
2018-07-11T16:14:22.761Z,8.50
2018-07-11T16:16:54.808Z,13.50
2018-07-11T16:19:24.085Z,9.70
2018-07-11T16:21:53.971Z,14.63
2018-07-11T16:24:23.453Z,9.70
2018-07-11T16:26:52.857Z,12.97
2018-07-11T16:29:23.267Z,13.07
2018-07-11T16:31:54.928Z,16.20
2018-07-11T16:34:29.424Z,12.20
2018-07-11T16:37:02.096Z,13.17
2018-07-11T16:39:32.154Z,12.23
2018-07-11T16:42:06.514Z,13.43
2018-07-11T16:44:39.955Z,14.77
2018-07-11T16:47:12.096Z,15.37
2018-07-11T16:49:48.017Z,12.57
2018-07-11T16:52:19.391Z,11.10
2018-07-11T16:54:50.544Z,13.40
2018-07-11T16:57:30.973Z,13.87
2018-07-11T17:00:12.018Z,11.73
2018-07-11T17:02:46.868Z,13.20
2018-07-11T17:05:21.770Z,11.93
2018-07-11T17:08:03.241Z,13.13
2018-07-11T17:10:36.750Z,12.60
2018-07-11T17:13:10.938Z,15.07
2018-07-11T17:15:52.085Z,12.00
2018-07-11T17:18:47.889Z,17.10
2018-07-11T17:21:59.255Z,11.73
2018-07-11T17:24:36.786Z,12.67
2018-07-11T17:27:09.138Z,13.93
2018-07-11T17:29:42.594Z,13.13
2018-07-11T17:32:21.871Z,17.73
2018-07-11T17:34:51.027Z,13.20
2018-07-11T17:37:22.204Z,18.30
2018-07-11T17:39:58.356Z,16.57
2018-07-11T17:42:33.792Z,15.30
2018-07-11T17:45:19.238Z,15.37
2018-07-11T17:49:06.751Z,14.93
2018-07-11T17:51:49.994Z,14.73
2018-07-11T17:54:19.307Z,15.97
2018-07-11T17:56:52.439Z,16.03
2018-07-11T18:00:32.240Z,14.47
2018-07-11T18:03:06.359Z,16.67
2018-07-11T18:07:50.192Z,15.50
2018-07-11T18:10:51.319Z,12.87
2018-07-11T18:13:33.905Z,16.83
2018-07-11T18:20:23.242Z,16.20
2018-07-11T18:25:03.803Z,12.07
2018-07-11T18:27:45.630Z,14.60
2018-07-11T18:31:01.312Z,14.43
2018-07-11T18:33:39.288Z,15.77
2018-07-11T18:36:17.608Z,19.30
2018-07-11T18:39:00.392Z,16.83
2018-07-11T18:41:37.971Z,15.97
2018-07-11T18:44:17.001Z,19.90
2018-07-11T18:47:02.056Z,22.90
2018-07-11T18:49:41.343Z,26.13
2018-07-11T18:52:23.760Z,25.07
2018-07-11T18:55:01.767Z,22.73
2018-07-11T18:57:40.581Z,26.03
2018-07-11T19:02:25.650Z,26.17
2018-07-11T19:05:06.772Z,27.70
2018-07-11T19:07:50.391Z,25.20
2018-07-11T19:10:31.238Z,32.43
2018-07-11T19:13:02.216Z,32.50
2018-07-11T19:15:47.392Z,30.00
2018-07-11T19:18:32.417Z,25.30
2018-07-11T19:21:11.042Z,22.73
2018-07-11T19:24:08.381Z,26.70
2018-07-11T19:27:52.771Z,24.47
2018-07-11T19:30:30.632Z,24.73
2018-07-11T19:33:10.668Z,27.60
2018-07-11T19:35:48.278Z,24.30
2018-07-11T19:38:30.089Z,23.27
2018-07-11T19:41:17.998Z,25.20
2018-07-11T19:43:56.777Z,24.47
2018-07-11T19:46:45.655Z,24.40
2018-07-11T19:49:20.879Z,23.77
2018-07-11T19:51:59.210Z,23.50
2018-07-11T19:54:36.711Z,22.97
2018-07-11T19:57:05.917Z,21.60
2018-07-11T19:59:35.270Z,21.97
2018-07-11T20:02:04.924Z,23.53
2018-07-11T20:04:34.182Z,20.40
2018-07-11T20:07:03.571Z,21.77
2018-07-11T20:09:32.802Z,22.50
2018-07-11T20:12:08.458Z,22.00
2018-07-11T20:14:37.788Z,25.93
2018-07-11T20:17:07.302Z,24.80
2018-07-11T20:19:36.692Z,21.23
2018-07-11T20:22:05.880Z,23.63
2018-07-11T20:24:34.974Z,24.20
2018-07-11T20:27:04.491Z,18.97
2018-07-11T20:29:33.922Z,19.83
2018-07-11T20:32:03.610Z,18.30
2018-07-11T20:34:32.747Z,19.63
2018-07-11T20:37:02.197Z,19.30
2018-07-11T20:39:31.583Z,19.23
2018-07-11T20:42:00.920Z,19.63
2018-07-11T20:44:30.276Z,20.90
2018-07-11T20:46:59.558Z,16.83
2018-07-11T20:49:33.999Z,20.73
2018-07-11T20:52:04.612Z,17.97
2018-07-11T20:54:33.851Z,22.57
2018-07-11T20:57:03.189Z,18.20
2018-07-11T21:01:47.108Z,20.50
2018-07-11T21:04:28.814Z,22.10
2018-07-11T21:09:12.801Z,20.63
2018-07-11T21:14:06.531Z,20.37
2018-07-11T21:18:47.415Z,19.60
2018-07-11T21:21:16.548Z,18.80
2018-07-11T21:23:45.738Z,23.47
2018-07-11T21:26:15.165Z,20.73
2018-07-11T21:28:44.293Z,19.17
2018-07-11T21:31:13.388Z,20.43
2018-07-11T21:33:42.519Z,17.47
2018-07-11T21:36:11.629Z,18.17
2018-07-11T21:38:40.831Z,19.83
2018-07-11T21:41:09.935Z,18.83
2018-07-11T21:43:39.174Z,18.10
2018-07-11T21:46:08.330Z,18.33
2018-07-11T21:48:37.623Z,22.97
2018-07-11T21:51:06.842Z,18.70
2018-07-11T21:53:36.003Z,20.20
2018-07-11T21:56:05.174Z,19.83
2018-07-11T21:58:34.361Z,28.70
2018-07-11T22:01:05.951Z,21.93
2018-07-11T22:03:35.316Z,22.57
2018-07-11T22:06:04.501Z,26.63
2018-07-11T22:08:33.634Z,26.37
2018-07-11T22:11:02.856Z,24.07
2018-07-11T22:13:32.151Z,26.37
2018-07-11T22:16:01.279Z,28.30
2018-07-11T22:18:33.811Z,26.87
2018-07-11T22:21:02.381Z,26.77
2018-07-11T22:23:30.060Z,27.93
2018-07-11T22:25:57.693Z,28.03
2018-07-11T22:28:25.380Z,29.07
2018-07-11T22:30:52.986Z,29.60
2018-07-11T22:33:20.683Z,38.00
2018-07-11T22:35:48.370Z,32.63
2018-07-11T22:38:16.056Z,36.03
2018-07-11T22:40:44.197Z,31.73
2018-07-11T22:43:11.815Z,34.23
2018-07-11T22:45:44.055Z,33.40
2018-07-11T22:50:48.873Z,38.30
2018-07-11T22:53:16.488Z,36.63
2018-07-11T22:55:44.113Z,33.97
2018-07-11T22:58:15.792Z,33.57
2018-07-11T23:00:49.132Z,32.93
2018-07-11T23:03:16.745Z,30.17
2018-07-11T23:05:44.352Z,34.77
2018-07-11T23:08:11.975Z,29.00
2018-07-11T23:10:39.665Z,32.03
2018-07-11T23:13:07.286Z,30.00
2018-07-11T23:15:35.029Z,26.87
2018-07-11T23:18:02.613Z,28.93
2018-07-11T23:20:38.555Z,27.70
2018-07-11T23:23:06.319Z,28.13
2018-07-11T23:25:33.974Z,26.40
2018-07-11T23:28:01.549Z,26.47
2018-07-11T23:30:29.183Z,26.63
2018-07-11T23:32:56.760Z,24.97
2018-07-11T23:35:24.419Z,23.50
2018-07-11T23:37:57.610Z,25.80
2018-07-11T23:40:28.096Z,23.37
2018-07-11T23:42:55.707Z,24.40
2018-07-11T23:45:25.302Z,21.73
2018-07-11T23:47:52.985Z,22.30
2018-07-11T23:50:20.585Z,22.30
2018-07-11T23:52:56.757Z,22.47
2018-07-11T23:55:26.361Z,21.13
